sensor_id;sensor_type;location;lat;lon;timestamp;P1;durP1;ratioP1;P2;durP2;ratioP2
28447;SDS011;15675;52.870;-1.416;2022-10-16T00:01:24;9.93;;;1.50;;
28447;SDS011;15675;52.870;-1.416;2022-10-16T00:03:54;8.68;;;2.22;;
28447;SDS011;15675;52.870;-1.416;2022-10-16T00:06:21;11.88;;;1.95;;
28447;SDS011;15675;52.870;-1.416;2022-10-16T00:08:50;12.68;;;2.63;;
28447;SDS011;15675;52.870;-1.416;2022-10-16T00:11:17;13.60;;;2.28;;
28447;SDS011;15675;52.870;-1.416;2022-10-16T00:13:46;7.97;;;1.50;;
28447;SDS011;15675;52.870;-1.416;2022-10-16T00:16:13;9.82;;;1.58;;
28447;SDS011;15675;52.870;-1.416;2022-10-16T00:18:39;11.98;;;2.25;;
28447;SDS011;15675;52.870;-1.416;2022-10-16T00:21:06;10.10;;;2.00;;
28447;SDS011;15675;52.870;-1.416;2022-10-16T00:23:43;8.55;;;1.60;;
28447;SDS011;15675;52.870;-1.416;2022-10-16T00:26:09;11.65;;;1.90;;
28447;SDS011;15675;52.870;-1.416;2022-10-16T00:28:37;14.27;;;2.08;;
28447;SDS011;15675;52.870;-1.416;2022-10-16T00:31:07;9.48;;;1.42;;
28447;SDS011;15675;52.870;-1.416;2022-10-16T00:33:34;8.80;;;1.50;;
28447;SDS011;15675;52.870;-1.416;2022-10-16T00:36:02;14.38;;;1.50;;
28447;SDS011;15675;52.870;-1.416;2022-10-16T00:38:28;9.80;;;1.70;;
28447;SDS011;15675;52.870;-1.416;2022-10-16T00:40:55;6.70;;;1.40;;
28447;SDS011;15675;52.870;-1.416;2022-10-16T00:46:26;8.00;;;1.55;;
28447;SDS011;15675;52.870;-1.416;2022-10-16T00:51:44;11.77;;;2.17;;
28447;SDS011;15675;52.870;-1.416;2022-10-16T00:54:14;11.15;;;1.73;;
28447;SDS011;15675;52.870;-1.416;2022-10-16T00:56:44;8.30;;;1.98;;
28447;SDS011;15675;52.870;-1.416;2022-10-16T00:59:15;11.52;;;1.75;;
28447;SDS011;15675;52.870;-1.416;2022-10-16T01:04:12;4.13;;;1.10;;
28447;SDS011;15675;52.870;-1.416;2022-10-16T01:06:51;7.80;;;1.75;;
28447;SDS011;15675;52.870;-1.416;2022-10-16T01:09:32;13.80;;;1.77;;
28447;SDS011;15675;52.870;-1.416;2022-10-16T01:12:15;12.10;;;1.52;;
28447;SDS011;15675;52.870;-1.416;2022-10-16T01:17:28;9.32;;;1.50;;
28447;SDS011;15675;52.870;-1.416;2022-10-16T01:20:03;6.25;;;1.40;;
28447;SDS011;15675;52.870;-1.416;2022-10-16T01:25:11;11.25;;;1.52;;
28447;SDS011;15675;52.870;-1.416;2022-10-16T01:27:45;10.30;;;1.60;;
28447;SDS011;15675;52.870;-1.416;2022-10-16T01:30:14;16.88;;;2.00;;
28447;SDS011;15675;52.870;-1.416;2022-10-16T01:32:57;6.05;;;1.15;;
28447;SDS011;15675;52.870;-1.416;2022-10-16T01:35:35;13.95;;;1.75;;
28447;SDS011;15675;52.870;-1.416;2022-10-16T01:38:06;15.80;;;1.88;;
28447;SDS011;15675;52.870;-1.416;2022-10-16T01:40:41;11.52;;;1.38;;
28447;SDS011;15675;52.870;-1.416;2022-10-16T01:43:20;11.10;;;2.00;;
28447;SDS011;15675;52.870;-1.416;2022-10-16T01:46:08;7.32;;;1.60;;
28447;SDS011;15675;52.870;-1.416;2022-10-16T01:48:35;8.60;;;1.17;;
28447;SDS011;15675;52.870;-1.416;2022-10-16T01:51:03;4.85;;;1.45;;
28447;SDS011;15675;52.870;-1.416;2022-10-16T01:53:34;3.65;;;0.98;;
28447;SDS011;15675;52.870;-1.416;2022-10-16T01:56:00;5.38;;;0.75;;
28447;SDS011;15675;52.870;-1.416;2022-10-16T01:58:30;4.30;;;0.95;;
28447;SDS011;15675;52.870;-1.416;2022-10-16T02:01:01;2.80;;;0.50;;
28447;SDS011;15675;52.870;-1.416;2022-10-16T02:03:27;8.00;;;1.83;;
28447;SDS011;15675;52.870;-1.416;2022-10-16T02:05:54;2.50;;;0.77;;
28447;SDS011;15675;52.870;-1.416;2022-10-16T02:08:22;5.07;;;0.65;;
28447;SDS011;15675;52.870;-1.416;2022-10-16T02:10:54;3.70;;;0.90;;
28447;SDS011;15675;52.870;-1.416;2022-10-16T02:13:29;6.10;;;0.75;;
28447;SDS011;15675;52.870;-1.416;2022-10-16T02:15:59;5.18;;;1.00;;
28447;SDS011;15675;52.870;-1.416;2022-10-16T02:18:26;5.00;;;0.70;;
28447;SDS011;15675;52.870;-1.416;2022-10-16T02:21:06;4.88;;;1.02;;
28447;SDS011;15675;52.870;-1.416;2022-10-16T02:23:51;5.00;;;0.80;;
28447;SDS011;15675;52.870;-1.416;2022-10-16T02:26:48;4.15;;;0.85;;
28447;SDS011;15675;52.870;-1.416;2022-10-16T02:29:15;7.20;;;0.80;;
28447;SDS011;15675;52.870;-1.416;2022-10-16T02:31:44;4.53;;;0.85;;
28447;SDS011;15675;52.870;-1.416;2022-10-16T02:34:13;4.00;;;1.10;;
28447;SDS011;15675;52.870;-1.416;2022-10-16T02:36:41;7.20;;;1.35;;
28447;SDS011;15675;52.870;-1.416;2022-10-16T02:39:08;4.15;;;1.00;;
28447;SDS011;15675;52.870;-1.416;2022-10-16T02:41:34;7.40;;;1.05;;
28447;SDS011;15675;52.870;-1.416;2022-10-16T02:44:00;8.90;;;1.45;;
28447;SDS011;15675;52.870;-1.416;2022-10-16T02:46:26;6.53;;;1.17;;
28447;SDS011;15675;52.870;-1.416;2022-10-16T02:48:52;5.05;;;1.33;;
28447;SDS011;15675;52.870;-1.416;2022-10-16T02:51:17;7.38;;;1.38;;
28447;SDS011;15675;52.870;-1.416;2022-10-16T02:53:43;4.35;;;1.02;;
28447;SDS011;15675;52.870;-1.416;2022-10-16T02:56:10;6.65;;;1.52;;
28447;SDS011;15675;52.870;-1.416;2022-10-16T02:58:36;7.85;;;1.00;;
28447;SDS011;15675;52.870;-1.416;2022-10-16T03:01:04;3.10;;;1.45;;
28447;SDS011;15675;52.870;-1.416;2022-10-16T03:03:29;7.63;;;1.55;;
28447;SDS011;15675;52.870;-1.416;2022-10-16T03:05:55;8.63;;;1.33;;
28447;SDS011;15675;52.870;-1.416;2022-10-16T03:08:21;14.55;;;1.92;;
28447;SDS011;15675;52.870;-1.416;2022-10-16T03:10:49;7.07;;;1.30;;
28447;SDS011;15675;52.870;-1.416;2022-10-16T03:13:15;9.60;;;1.58;;
28447;SDS011;15675;52.870;-1.416;2022-10-16T03:15:41;16.00;;;2.28;;
28447;SDS011;15675;52.870;-1.416;2022-10-16T03:18:06;11.05;;;1.50;;
28447;SDS011;15675;52.870;-1.416;2022-10-16T03:20:32;9.48;;;1.50;;
28447;SDS011;15675;52.870;-1.416;2022-10-16T03:22:57;6.70;;;1.60;;
28447;SDS011;15675;52.870;-1.416;2022-10-16T03:25:23;10.27;;;1.75;;
28447;SDS011;15675;52.870;-1.416;2022-10-16T03:27:48;13.73;;;2.63;;
28447;SDS011;15675;52.870;-1.416;2022-10-16T03:30:14;13.10;;;2.10;;
28447;SDS011;15675;52.870;-1.416;2022-10-16T03:32:40;7.18;;;1.40;;
28447;SDS011;15675;52.870;-1.416;2022-10-16T03:35:06;10.00;;;2.08;;
28447;SDS011;15675;52.870;-1.416;2022-10-16T03:37:31;10.20;;;2.05;;
28447;SDS011;15675;52.870;-1.416;2022-10-16T03:39:57;9.02;;;1.92;;
28447;SDS011;15675;52.870;-1.416;2022-10-16T03:42:23;13.13;;;2.25;;
28447;SDS011;15675;52.870;-1.416;2022-10-16T03:44:50;13.40;;;2.13;;
28447;SDS011;15675;52.870;-1.416;2022-10-16T03:47:15;12.02;;;2.13;;
28447;SDS011;15675;52.870;-1.416;2022-10-16T03:49:45;10.35;;;1.65;;
28447;SDS011;15675;52.870;-1.416;2022-10-16T03:52:11;8.05;;;1.50;;
28447;SDS011;15675;52.870;-1.416;2022-10-16T03:54:36;10.00;;;1.67;;
28447;SDS011;15675;52.870;-1.416;2022-10-16T03:57:02;10.25;;;1.88;;
28447;SDS011;15675;52.870;-1.416;2022-10-16T03:59:27;9.10;;;1.80;;
28447;SDS011;15675;52.870;-1.416;2022-10-16T04:01:53;13.38;;;1.73;;
28447;SDS011;15675;52.870;-1.416;2022-10-16T04:04:19;11.75;;;2.15;;
28447;SDS011;15675;52.870;-1.416;2022-10-16T04:06:45;10.80;;;1.30;;
28447;SDS011;15675;52.870;-1.416;2022-10-16T04:09:10;14.68;;;1.67;;
28447;SDS011;15675;52.870;-1.416;2022-10-16T04:11:36;15.32;;;1.98;;
28447;SDS011;15675;52.870;-1.416;2022-10-16T04:14:02;7.53;;;1.08;;
28447;SDS011;15675;52.870;-1.416;2022-10-16T04:16:28;7.65;;;1.65;;
28447;SDS011;15675;52.870;-1.416;2022-10-16T04:18:53;9.82;;;1.30;;
28447;SDS011;15675;52.870;-1.416;2022-10-16T04:21:19;17.10;;;1.63;;
28447;SDS011;15675;52.870;-1.416;2022-10-16T04:23:44;11.82;;;1.95;;
28447;SDS011;15675;52.870;-1.416;2022-10-16T04:26:10;8.07;;;1.20;;
28447;SDS011;15675;52.870;-1.416;2022-10-16T04:28:36;7.05;;;1.70;;
28447;SDS011;15675;52.870;-1.416;2022-10-16T04:31:05;11.88;;;1.73;;
28447;SDS011;15675;52.870;-1.416;2022-10-16T04:33:30;4.85;;;1.65;;
28447;SDS011;15675;52.870;-1.416;2022-10-16T04:36:00;7.53;;;1.50;;
28447;SDS011;15675;52.870;-1.416;2022-10-16T04:38:26;16.75;;;1.88;;
28447;SDS011;15675;52.870;-1.416;2022-10-16T04:40:52;14.90;;;2.00;;
28447;SDS011;15675;52.870;-1.416;2022-10-16T04:43:18;5.05;;;1.27;;
28447;SDS011;15675;52.870;-1.416;2022-10-16T04:45:44;15.07;;;2.05;;
28447;SDS011;15675;52.870;-1.416;2022-10-16T04:48:09;11.77;;;1.85;;
28447;SDS011;15675;52.870;-1.416;2022-10-16T04:50:35;14.32;;;1.65;;
28447;SDS011;15675;52.870;-1.416;2022-10-16T04:53:00;12.77;;;1.80;;
28447;SDS011;15675;52.870;-1.416;2022-10-16T04:55:26;14.65;;;2.97;;
28447;SDS011;15675;52.870;-1.416;2022-10-16T04:57:52;13.80;;;2.38;;
28447;SDS011;15675;52.870;-1.416;2022-10-16T05:00:17;11.35;;;1.77;;
28447;SDS011;15675;52.870;-1.416;2022-10-16T05:02:43;8.25;;;1.42;;
28447;SDS011;15675;52.870;-1.416;2022-10-16T05:05:08;7.07;;;1.15;;
28447;SDS011;15675;52.870;-1.416;2022-10-16T05:07:34;10.10;;;1.50;;
28447;SDS011;15675;52.870;-1.416;2022-10-16T05:10:00;11.65;;;1.98;;
28447;SDS011;15675;52.870;-1.416;2022-10-16T05:12:25;9.93;;;1.45;;
28447;SDS011;15675;52.870;-1.416;2022-10-16T05:14:51;11.48;;;1.45;;
28447;SDS011;15675;52.870;-1.416;2022-10-16T05:17:16;9.52;;;1.80;;
28447;SDS011;15675;52.870;-1.416;2022-10-16T05:19:43;11.65;;;1.65;;
28447;SDS011;15675;52.870;-1.416;2022-10-16T05:22:09;10.65;;;1.50;;
28447;SDS011;15675;52.870;-1.416;2022-10-16T05:24:34;9.50;;;1.73;;
28447;SDS011;15675;52.870;-1.416;2022-10-16T05:27:00;13.60;;;1.75;;
28447;SDS011;15675;52.870;-1.416;2022-10-16T05:29:25;6.18;;;1.58;;
28447;SDS011;15675;52.870;-1.416;2022-10-16T05:31:52;10.55;;;1.27;;
28447;SDS011;15675;52.870;-1.416;2022-10-16T05:34:18;7.65;;;1.95;;
28447;SDS011;15675;52.870;-1.416;2022-10-16T05:36:45;9.10;;;2.28;;
28447;SDS011;15675;52.870;-1.416;2022-10-16T05:39:11;10.55;;;1.45;;
28447;SDS011;15675;52.870;-1.416;2022-10-16T05:41:38;8.77;;;1.30;;
28447;SDS011;15675;52.870;-1.416;2022-10-16T05:44:04;5.68;;;1.42;;
28447;SDS011;15675;52.870;-1.416;2022-10-16T05:46:31;13.65;;;1.23;;
28447;SDS011;15675;52.870;-1.416;2022-10-16T05:48:57;11.65;;;1.60;;
28447;SDS011;15675;52.870;-1.416;2022-10-16T05:51:22;10.73;;;1.65;;
28447;SDS011;15675;52.870;-1.416;2022-10-16T05:53:48;16.08;;;2.22;;
28447;SDS011;15675;52.870;-1.416;2022-10-16T05:56:13;16.58;;;1.75;;
28447;SDS011;15675;52.870;-1.416;2022-10-16T05:58:39;8.40;;;1.67;;
28447;SDS011;15675;52.870;-1.416;2022-10-16T06:01:26;11.50;;;1.92;;
28447;SDS011;15675;52.870;-1.416;2022-10-16T06:03:53;11.05;;;1.83;;
28447;SDS011;15675;52.870;-1.416;2022-10-16T06:06:20;9.10;;;1.17;;
28447;SDS011;15675;52.870;-1.416;2022-10-16T06:08:48;13.73;;;1.63;;
28447;SDS011;15675;52.870;-1.416;2022-10-16T06:11:15;4.32;;;1.10;;
28447;SDS011;15675;52.870;-1.416;2022-10-16T06:13:42;6.38;;;1.70;;
28447;SDS011;15675;52.870;-1.416;2022-10-16T06:16:10;9.57;;;1.48;;
28447;SDS011;15675;52.870;-1.416;2022-10-16T06:18:37;5.68;;;1.40;;
28447;SDS011;15675;52.870;-1.416;2022-10-16T06:21:09;11.13;;;1.65;;
28447;SDS011;15675;52.870;-1.416;2022-10-16T06:23:37;13.07;;;1.50;;
28447;SDS011;15675;52.870;-1.416;2022-10-16T06:26:09;8.15;;;1.63;;
28447;SDS011;15675;52.870;-1.416;2022-10-16T06:28:36;6.43;;;1.23;;
28447;SDS011;15675;52.870;-1.416;2022-10-16T06:31:03;11.35;;;1.60;;
28447;SDS011;15675;52.870;-1.416;2022-10-16T06:33:29;11.98;;;1.45;;
28447;SDS011;15675;52.870;-1.416;2022-10-16T06:36:05;8.88;;;1.70;;
28447;SDS011;15675;52.870;-1.416;2022-10-16T06:38:31;9.88;;;1.35;;
28447;SDS011;15675;52.870;-1.416;2022-10-16T06:40:57;10.00;;;1.30;;
28447;SDS011;15675;52.870;-1.416;2022-10-16T06:43:23;7.93;;;1.35;;
28447;SDS011;15675;52.870;-1.416;2022-10-16T06:45:50;5.55;;;1.50;;
28447;SDS011;15675;52.870;-1.416;2022-10-16T06:48:17;12.48;;;1.80;;
28447;SDS011;15675;52.870;-1.416;2022-10-16T06:50:42;7.75;;;1.67;;
28447;SDS011;15675;52.870;-1.416;2022-10-16T06:53:08;8.93;;;1.58;;
28447;SDS011;15675;52.870;-1.416;2022-10-16T06:55:33;8.43;;;2.33;;
28447;SDS011;15675;52.870;-1.416;2022-10-16T06:57:59;11.40;;;1.50;;
28447;SDS011;15675;52.870;-1.416;2022-10-16T07:00:24;11.00;;;1.83;;
28447;SDS011;15675;52.870;-1.416;2022-10-16T07:02:50;12.60;;;1.48;;
28447;SDS011;15675;52.870;-1.416;2022-10-16T07:05:15;10.68;;;1.35;;
28447;SDS011;15675;52.870;-1.416;2022-10-16T07:07:41;13.45;;;1.83;;
28447;SDS011;15675;52.870;-1.416;2022-10-16T07:10:07;8.63;;;1.30;;
28447;SDS011;15675;52.870;-1.416;2022-10-16T07:12:33;9.55;;;1.52;;
28447;SDS011;15675;52.870;-1.416;2022-10-16T07:14:58;10.18;;;1.40;;
28447;SDS011;15675;52.870;-1.416;2022-10-16T07:17:24;12.73;;;1.90;;
28447;SDS011;15675;52.870;-1.416;2022-10-16T07:19:49;10.80;;;1.80;;
28447;SDS011;15675;52.870;-1.416;2022-10-16T07:22:17;6.60;;;1.17;;
28447;SDS011;15675;52.870;-1.416;2022-10-16T07:24:43;8.20;;;1.33;;
28447;SDS011;15675;52.870;-1.416;2022-10-16T07:27:09;7.95;;;1.40;;
28447;SDS011;15675;52.870;-1.416;2022-10-16T07:29:35;12.60;;;1.38;;
28447;SDS011;15675;52.870;-1.416;2022-10-16T07:32:01;10.73;;;1.55;;
28447;SDS011;15675;52.870;-1.416;2022-10-16T07:34:27;12.48;;;1.80;;
28447;SDS011;15675;52.870;-1.416;2022-10-16T07:36:52;7.22;;;1.50;;
28447;SDS011;15675;52.870;-1.416;2022-10-16T07:39:18;12.60;;;1.50;;
28447;SDS011;15675;52.870;-1.416;2022-10-16T07:41:43;6.85;;;1.38;;
28447;SDS011;15675;52.870;-1.416;2022-10-16T07:44:09;11.88;;;1.83;;
28447;SDS011;15675;52.870;-1.416;2022-10-16T07:46:35;10.00;;;1.55;;
28447;SDS011;15675;52.870;-1.416;2022-10-16T07:49:01;14.68;;;1.55;;
28447;SDS011;15675;52.870;-1.416;2022-10-16T07:51:27;5.68;;;1.50;;
28447;SDS011;15675;52.870;-1.416;2022-10-16T07:53:53;3.50;;;1.10;;
28447;SDS011;15675;52.870;-1.416;2022-10-16T07:56:19;5.25;;;1.10;;
28447;SDS011;15675;52.870;-1.416;2022-10-16T07:58:46;6.50;;;1.20;;
28447;SDS011;15675;52.870;-1.416;2022-10-16T08:01:14;9.80;;;1.58;;
28447;SDS011;15675;52.870;-1.416;2022-10-16T08:03:44;8.38;;;1.33;;
28447;SDS011;15675;52.870;-1.416;2022-10-16T08:06:11;5.65;;;1.45;;
28447;SDS011;15675;52.870;-1.416;2022-10-16T08:08:36;8.13;;;1.38;;
28447;SDS011;15675;52.870;-1.416;2022-10-16T08:11:02;5.90;;;1.40;;
28447;SDS011;15675;52.870;-1.416;2022-10-16T08:13:29;10.13;;;1.65;;
28447;SDS011;15675;52.870;-1.416;2022-10-16T08:15:55;6.03;;;1.58;;
28447;SDS011;15675;52.870;-1.416;2022-10-16T08:18:21;3.53;;;0.93;;
28447;SDS011;15675;52.870;-1.416;2022-10-16T08:20:46;9.93;;;1.73;;
28447;SDS011;15675;52.870;-1.416;2022-10-16T08:23:12;14.35;;;2.35;;
28447;SDS011;15675;52.870;-1.416;2022-10-16T08:25:41;6.07;;;1.38;;
28447;SDS011;15675;52.870;-1.416;2022-10-16T08:28:08;6.60;;;1.83;;
28447;SDS011;15675;52.870;-1.416;2022-10-16T08:30:35;13.52;;;2.13;;
28447;SDS011;15675;52.870;-1.416;2022-10-16T08:33:01;10.30;;;2.13;;
28447;SDS011;15675;52.870;-1.416;2022-10-16T08:35:26;7.72;;;1.20;;
28447;SDS011;15675;52.870;-1.416;2022-10-16T08:37:52;6.10;;;1.33;;
28447;SDS011;15675;52.870;-1.416;2022-10-16T08:40:25;9.20;;;1.15;;
28447;SDS011;15675;52.870;-1.416;2022-10-16T08:48:45;7.63;;;1.40;;
28447;SDS011;15675;52.870;-1.416;2022-10-16T08:51:16;5.10;;;1.00;;
28447;SDS011;15675;52.870;-1.416;2022-10-16T08:56:31;8.35;;;1.65;;
28447;SDS011;15675;52.870;-1.416;2022-10-16T08:58:58;5.72;;;1.20;;
28447;SDS011;15675;52.870;-1.416;2022-10-16T09:01:27;9.25;;;1.70;;
28447;SDS011;15675;52.870;-1.416;2022-10-16T09:07:14;5.50;;;1.13;;
28447;SDS011;15675;52.870;-1.416;2022-10-16T09:09:54;10.18;;;1.25;;
28447;SDS011;15675;52.870;-1.416;2022-10-16T09:20:51;5.63;;;1.27;;
28447;SDS011;15675;52.870;-1.416;2022-10-16T09:23:43;6.18;;;1.10;;
28447;SDS011;15675;52.870;-1.416;2022-10-16T09:26:10;4.88;;;1.45;;
28447;SDS011;15675;52.870;-1.416;2022-10-16T09:28:37;10.88;;;1.63;;
28447;SDS011;15675;52.870;-1.416;2022-10-16T09:31:03;9.98;;;1.48;;
28447;SDS011;15675;52.870;-1.416;2022-10-16T09:33:30;6.63;;;1.30;;
28447;SDS011;15675;52.870;-1.416;2022-10-16T09:35:59;7.05;;;1.20;;
28447;SDS011;15675;52.870;-1.416;2022-10-16T09:38:29;5.93;;;1.35;;
28447;SDS011;15675;52.870;-1.416;2022-10-16T09:40:57;4.90;;;1.05;;
28447;SDS011;15675;52.870;-1.416;2022-10-16T09:43:41;6.68;;;1.65;;
28447;SDS011;15675;52.870;-1.416;2022-10-16T09:46:29;4.65;;;1.17;;
28447;SDS011;15675;52.870;-1.416;2022-10-16T09:49:00;8.20;;;1.42;;
28447;SDS011;15675;52.870;-1.416;2022-10-16T09:51:32;5.65;;;1.17;;
28447;SDS011;15675;52.870;-1.416;2022-10-16T09:56:35;10.15;;;1.63;;
28447;SDS011;15675;52.870;-1.416;2022-10-16T09:59:10;6.22;;;1.30;;
28447;SDS011;15675;52.870;-1.416;2022-10-16T10:04:11;4.72;;;1.20;;
28447;SDS011;15675;52.870;-1.416;2022-10-16T10:06:37;9.07;;;1.15;;
28447;SDS011;15675;52.870;-1.416;2022-10-16T10:11:50;5.32;;;1.13;;
28447;SDS011;15675;52.870;-1.416;2022-10-16T10:14:26;8.38;;;1.02;;
28447;SDS011;15675;52.870;-1.416;2022-10-16T10:17:02;8.50;;;1.27;;
28447;SDS011;15675;52.870;-1.416;2022-10-16T10:19:44;3.53;;;1.17;;
28447;SDS011;15675;52.870;-1.416;2022-10-16T10:22:20;10.20;;;1.23;;
28447;SDS011;15675;52.870;-1.416;2022-10-16T10:24:56;6.78;;;1.10;;
28447;SDS011;15675;52.870;-1.416;2022-10-16T10:28:15;7.78;;;1.27;;
28447;SDS011;15675;52.870;-1.416;2022-10-16T10:46:57;4.90;;;1.08;;
28447;SDS011;15675;52.870;-1.416;2022-10-16T10:49:37;8.45;;;1.30;;
28447;SDS011;15675;52.870;-1.416;2022-10-16T10:55:13;12.02;;;2.05;;
28447;SDS011;15675;52.870;-1.416;2022-10-16T11:03:42;6.07;;;0.70;;
28447;SDS011;15675;52.870;-1.416;2022-10-16T11:06:24;3.70;;;0.90;;
28447;SDS011;15675;52.870;-1.416;2022-10-16T11:09:00;6.60;;;1.48;;
28447;SDS011;15675;52.870;-1.416;2022-10-16T11:11:33;6.05;;;1.30;;
28447;SDS011;15675;52.870;-1.416;2022-10-16T11:14:23;5.75;;;1.20;;
28447;SDS011;15675;52.870;-1.416;2022-10-16T11:27:53;1.40;;;0.77;;
28447;SDS011;15675;52.870;-1.416;2022-10-16T11:30:27;6.93;;;1.38;;
28447;SDS011;15675;52.870;-1.416;2022-10-16T11:33:02;7.68;;;1.00;;
28447;SDS011;15675;52.870;-1.416;2022-10-16T11:35:43;4.78;;;1.02;;
28447;SDS011;15675;52.870;-1.416;2022-10-16T11:38:14;5.88;;;0.80;;
28447;SDS011;15675;52.870;-1.416;2022-10-16T11:40:47;7.18;;;1.13;;
28447;SDS011;15675;52.870;-1.416;2022-10-16T11:43:21;7.70;;;0.90;;
28447;SDS011;15675;52.870;-1.416;2022-10-16T11:45:51;6.73;;;1.10;;
28447;SDS011;15675;52.870;-1.416;2022-10-16T11:56:43;5.38;;;1.00;;
28447;SDS011;15675;52.870;-1.416;2022-10-16T12:06:59;6.68;;;1.00;;
28447;SDS011;15675;52.870;-1.416;2022-10-16T12:09:31;3.65;;;1.23;;
28447;SDS011;15675;52.870;-1.416;2022-10-16T12:11:58;6.78;;;0.82;;
28447;SDS011;15675;52.870;-1.416;2022-10-16T12:16:56;5.93;;;0.93;;
28447;SDS011;15675;52.870;-1.416;2022-10-16T12:19:27;8.00;;;1.30;;
28447;SDS011;15675;52.870;-1.416;2022-10-16T12:22:01;5.50;;;1.13;;
28447;SDS011;15675;52.870;-1.416;2022-10-16T12:29:41;9.70;;;1.45;;
28447;SDS011;15675;52.870;-1.416;2022-10-16T12:32:24;5.05;;;1.00;;
28447;SDS011;15675;52.870;-1.416;2022-10-16T12:35:01;7.53;;;1.15;;
28447;SDS011;15675;52.870;-1.416;2022-10-16T12:37:37;5.15;;;0.85;;
28447;SDS011;15675;52.870;-1.416;2022-10-16T12:40:13;5.63;;;1.02;;
28447;SDS011;15675;52.870;-1.416;2022-10-16T12:42:51;4.05;;;1.15;;
28447;SDS011;15675;52.870;-1.416;2022-10-16T12:45:30;6.85;;;1.05;;
28447;SDS011;15675;52.870;-1.416;2022-10-16T12:47:58;2.88;;;1.15;;
28447;SDS011;15675;52.870;-1.416;2022-10-16T12:50:27;4.75;;;0.98;;
28447;SDS011;15675;52.870;-1.416;2022-10-16T12:52:58;2.70;;;0.75;;
28447;SDS011;15675;52.870;-1.416;2022-10-16T12:55:24;8.70;;;1.08;;
28447;SDS011;15675;52.870;-1.416;2022-10-16T13:00:44;4.35;;;0.73;;
28447;SDS011;15675;52.870;-1.416;2022-10-16T13:03:35;8.27;;;0.88;;
28447;SDS011;15675;52.870;-1.416;2022-10-16T13:06:20;4.15;;;0.77;;
28447;SDS011;15675;52.870;-1.416;2022-10-16T13:08:58;3.72;;;0.77;;
28447;SDS011;15675;52.870;-1.416;2022-10-16T13:28:06;1.65;;;0.60;;
28447;SDS011;15675;52.870;-1.416;2022-10-16T13:30:43;4.85;;;0.90;;
28447;SDS011;15675;52.870;-1.416;2022-10-16T13:33:29;6.03;;;0.90;;
28447;SDS011;15675;52.870;-1.416;2022-10-16T13:36:17;6.22;;;0.68;;
28447;SDS011;15675;52.870;-1.416;2022-10-16T13:38:45;2.85;;;0.68;;
28447;SDS011;15675;52.870;-1.416;2022-10-16T13:41:15;4.15;;;0.65;;
28447;SDS011;15675;52.870;-1.416;2022-10-16T13:43:45;3.97;;;0.77;;
28447;SDS011;15675;52.870;-1.416;2022-10-16T13:46:15;3.83;;;1.00;;
28447;SDS011;15675;52.870;-1.416;2022-10-16T13:48:43;3.70;;;0.68;;
28447;SDS011;15675;52.870;-1.416;2022-10-16T13:51:16;3.95;;;0.82;;
28447;SDS011;15675;52.870;-1.416;2022-10-16T13:53:43;2.75;;;0.50;;
28447;SDS011;15675;52.870;-1.416;2022-10-16T13:56:14;3.53;;;0.52;;
28447;SDS011;15675;52.870;-1.416;2022-10-16T13:58:43;5.43;;;0.68;;
28447;SDS011;15675;52.870;-1.416;2022-10-16T14:01:29;8.10;;;0.98;;
28447;SDS011;15675;52.870;-1.416;2022-10-16T14:04:04;3.13;;;0.60;;
28447;SDS011;15675;52.870;-1.416;2022-10-16T14:06:32;4.45;;;0.88;;
28447;SDS011;15675;52.870;-1.416;2022-10-16T14:09:07;4.18;;;0.75;;
28447;SDS011;15675;52.870;-1.416;2022-10-16T14:11:36;2.03;;;0.65;;
28447;SDS011;15675;52.870;-1.416;2022-10-16T14:14:11;2.50;;;0.70;;
28447;SDS011;15675;52.870;-1.416;2022-10-16T14:16:37;8.30;;;0.75;;
28447;SDS011;15675;52.870;-1.416;2022-10-16T14:19:06;3.90;;;0.57;;
28447;SDS011;15675;52.870;-1.416;2022-10-16T14:21:57;3.60;;;0.70;;
28447;SDS011;15675;52.870;-1.416;2022-10-16T14:24:33;5.20;;;0.60;;
28447;SDS011;15675;52.870;-1.416;2022-10-16T14:27:00;5.10;;;0.90;;
28447;SDS011;15675;52.870;-1.416;2022-10-16T14:29:28;3.13;;;0.70;;
28447;SDS011;15675;52.870;-1.416;2022-10-16T14:34:30;1.75;;;0.60;;
28447;SDS011;15675;52.870;-1.416;2022-10-16T14:36:58;3.88;;;1.02;;
28447;SDS011;15675;52.870;-1.416;2022-10-16T14:39:27;2.53;;;0.73;;
28447;SDS011;15675;52.870;-1.416;2022-10-16T14:41:55;3.47;;;0.55;;
28447;SDS011;15675;52.870;-1.416;2022-10-16T14:44:23;5.35;;;0.88;;
28447;SDS011;15675;52.870;-1.416;2022-10-16T14:46:57;3.05;;;0.60;;
28447;SDS011;15675;52.870;-1.416;2022-10-16T14:49:31;4.22;;;0.73;;
28447;SDS011;15675;52.870;-1.416;2022-10-16T14:51:57;6.50;;;0.93;;
28447;SDS011;15675;52.870;-1.416;2022-10-16T14:54:22;4.80;;;0.65;;
28447;SDS011;15675;52.870;-1.416;2022-10-16T14:56:49;5.03;;;0.95;;
28447;SDS011;15675;52.870;-1.416;2022-10-16T14:59:18;3.22;;;1.20;;
28447;SDS011;15675;52.870;-1.416;2022-10-16T15:01:45;4.80;;;1.05;;
28447;SDS011;15675;52.870;-1.416;2022-10-16T15:04:11;4.90;;;1.20;;
28447;SDS011;15675;52.870;-1.416;2022-10-16T15:06:38;5.32;;;0.80;;
28447;SDS011;15675;52.870;-1.416;2022-10-16T15:09:03;6.55;;;1.77;;
28447;SDS011;15675;52.870;-1.416;2022-10-16T15:11:29;3.83;;;0.93;;
28447;SDS011;15675;52.870;-1.416;2022-10-16T15:13:57;6.38;;;1.13;;
28447;SDS011;15675;52.870;-1.416;2022-10-16T15:16:23;3.35;;;0.82;;
28447;SDS011;15675;52.870;-1.416;2022-10-16T15:18:49;2.22;;;0.82;;
28447;SDS011;15675;52.870;-1.416;2022-10-16T15:21:21;5.95;;;1.10;;
28447;SDS011;15675;52.870;-1.416;2022-10-16T15:23:50;4.68;;;0.98;;
28447;SDS011;15675;52.870;-1.416;2022-10-16T15:26:18;5.15;;;1.00;;
28447;SDS011;15675;52.870;-1.416;2022-10-16T15:28:43;5.15;;;0.70;;
28447;SDS011;15675;52.870;-1.416;2022-10-16T15:31:09;2.45;;;0.75;;
28447;SDS011;15675;52.870;-1.416;2022-10-16T15:33:34;3.28;;;0.77;;
28447;SDS011;15675;52.870;-1.416;2022-10-16T15:36:00;6.57;;;0.80;;
28447;SDS011;15675;52.870;-1.416;2022-10-16T15:38:27;4.10;;;0.90;;
28447;SDS011;15675;52.870;-1.416;2022-10-16T15:40:53;5.45;;;1.00;;
28447;SDS011;15675;52.870;-1.416;2022-10-16T15:43:19;7.60;;;1.25;;
28447;SDS011;15675;52.870;-1.416;2022-10-16T15:45:47;5.90;;;0.85;;
28447;SDS011;15675;52.870;-1.416;2022-10-16T15:48:31;5.88;;;1.25;;
28447;SDS011;15675;52.870;-1.416;2022-10-16T15:50:57;8.10;;;0.70;;
28447;SDS011;15675;52.870;-1.416;2022-10-16T15:53:23;3.58;;;0.70;;
28447;SDS011;15675;52.870;-1.416;2022-10-16T15:55:48;3.85;;;0.70;;
28447;SDS011;15675;52.870;-1.416;2022-10-16T15:58:14;3.90;;;0.80;;
28447;SDS011;15675;52.870;-1.416;2022-10-16T16:00:40;3.50;;;0.73;;
28447;SDS011;15675;52.870;-1.416;2022-10-16T16:03:05;8.55;;;1.38;;
28447;SDS011;15675;52.870;-1.416;2022-10-16T16:05:31;6.63;;;1.08;;
28447;SDS011;15675;52.870;-1.416;2022-10-16T16:07:58;4.90;;;1.10;;
28447;SDS011;15675;52.870;-1.416;2022-10-16T16:10:24;6.18;;;1.25;;
28447;SDS011;15675;52.870;-1.416;2022-10-16T16:12:50;3.00;;;0.80;;
28447;SDS011;15675;52.870;-1.416;2022-10-16T16:15:18;5.45;;;1.00;;
28447;SDS011;15675;52.870;-1.416;2022-10-16T16:17:45;2.90;;;0.77;;
28447;SDS011;15675;52.870;-1.416;2022-10-16T16:20:11;5.75;;;0.93;;
28447;SDS011;15675;52.870;-1.416;2022-10-16T16:22:37;6.30;;;1.52;;
28447;SDS011;15675;52.870;-1.416;2022-10-16T16:25:02;3.45;;;1.55;;
28447;SDS011;15675;52.870;-1.416;2022-10-16T16:27:28;5.70;;;1.42;;
28447;SDS011;15675;52.870;-1.416;2022-10-16T16:29:55;7.30;;;0.80;;
28447;SDS011;15675;52.870;-1.416;2022-10-16T16:32:21;8.77;;;1.23;;
28447;SDS011;15675;52.870;-1.416;2022-10-16T16:34:47;6.78;;;1.17;;
28447;SDS011;15675;52.870;-1.416;2022-10-16T16:37:12;8.15;;;1.23;;
28447;SDS011;15675;52.870;-1.416;2022-10-16T16:39:38;6.30;;;1.58;;
28447;SDS011;15675;52.870;-1.416;2022-10-16T16:42:04;6.32;;;1.30;;
28447;SDS011;15675;52.870;-1.416;2022-10-16T16:44:31;8.38;;;1.20;;
28447;SDS011;15675;52.870;-1.416;2022-10-16T16:46:57;5.47;;;1.33;;